createdAt,value
2018-04-18T00:02:22.186Z,18.23
2018-04-18T00:04:49.637Z,17.77
2018-04-18T00:07:17.086Z,17.20
2018-04-18T00:09:45.314Z,17.80
2018-04-18T00:12:12.775Z,17.30
2018-04-18T00:14:40.806Z,16.93
2018-04-18T00:17:09.026Z,17.60
2018-04-18T00:19:36.483Z,17.87
2018-04-18T00:22:03.921Z,17.73
2018-04-18T00:24:31.375Z,18.37
2018-04-18T00:26:58.818Z,17.40
2018-04-18T00:29:27.039Z,16.37
2018-04-18T00:31:54.477Z,17.87
2018-04-18T00:34:21.956Z,17.13
2018-04-18T00:36:49.389Z,17.00
2018-04-18T00:39:17.623Z,17.03
2018-04-18T00:41:45.073Z,17.07
2018-04-18T00:44:12.529Z,17.97
2018-04-18T00:46:39.979Z,16.97
2018-04-18T00:49:07.447Z,18.90
2018-04-18T00:51:34.897Z,17.83
2018-04-18T00:54:02.340Z,18.70
2018-04-18T00:56:30.559Z,18.20
2018-04-18T00:58:58.002Z,17.50
2018-04-18T01:01:25.445Z,18.23
2018-04-18T01:03:52.891Z,17.60
2018-04-18T01:06:21.097Z,18.33
2018-04-18T01:08:48.539Z,18.67
2018-04-18T01:11:16.767Z,16.67
2018-04-18T01:13:44.200Z,17.03
2018-04-18T01:16:11.660Z,17.87
2018-04-18T01:18:39.094Z,16.77
2018-04-18T01:21:07.311Z,17.50
2018-04-18T01:23:34.747Z,17.37
2018-04-18T01:26:02.194Z,17.00
2018-04-18T01:28:30.402Z,17.83
2018-04-18T01:30:57.863Z,17.60
2018-04-18T01:33:25.294Z,17.77
2018-04-18T01:35:53.555Z,18.83
2018-04-18T01:38:21.006Z,17.60
2018-04-18T01:40:48.467Z,17.17
2018-04-18T01:43:15.910Z,17.80
2018-04-18T01:45:43.370Z,17.90
2018-04-18T01:48:10.827Z,15.93
2018-04-18T01:50:38.276Z,17.23
2018-04-18T01:53:05.734Z,16.20
2018-04-18T01:55:33.177Z,16.90
2018-04-18T01:58:00.631Z,16.53
2018-04-18T02:00:28.078Z,17.20
2018-04-18T02:02:56.288Z,16.50
2018-04-18T02:05:23.755Z,18.20
2018-04-18T02:07:51.210Z,17.97
2018-04-18T02:10:18.657Z,19.10
2018-04-18T02:12:46.872Z,18.20
2018-04-18T02:15:14.350Z,18.90
2018-04-18T02:17:41.912Z,18.20
2018-04-18T02:20:09.359Z,21.03
2018-04-18T02:22:36.798Z,19.27
2018-04-18T02:25:04.254Z,18.20
2018-04-18T02:27:31.690Z,20.07
2018-04-18T02:29:59.955Z,18.70
2018-04-18T02:32:27.367Z,19.57
2018-04-18T02:34:54.819Z,20.27
2018-04-18T02:37:22.257Z,19.33
2018-04-18T02:39:50.470Z,19.40
2018-04-18T02:42:17.939Z,19.07
2018-04-18T02:44:45.390Z,19.87
2018-04-18T02:47:13.639Z,18.50
2018-04-18T02:49:41.851Z,18.23
2018-04-18T02:52:09.366Z,19.13
2018-04-18T02:54:36.819Z,19.63
2018-04-18T02:57:04.270Z,18.73
2018-04-18T02:59:31.715Z,19.37
2018-04-18T03:01:59.161Z,18.60
2018-04-18T03:04:27.125Z,17.97
2018-04-18T03:06:54.559Z,18.13
2018-04-18T03:09:22.765Z,18.00
2018-04-18T03:11:50.231Z,19.53
2018-04-18T03:14:17.720Z,18.03
2018-04-18T03:16:45.251Z,18.60
2018-04-18T03:19:12.674Z,18.70
2018-04-18T03:21:40.894Z,18.30
2018-04-18T03:24:08.346Z,18.43
2018-04-18T03:26:35.842Z,18.43
2018-04-18T03:29:03.247Z,18.27
2018-04-18T03:31:31.472Z,18.53
2018-04-18T03:33:58.931Z,18.53
2018-04-18T03:36:26.394Z,19.67
2018-04-18T03:38:53.823Z,18.23
2018-04-18T03:41:21.281Z,18.87
2018-04-18T03:43:49.487Z,18.70
2018-04-18T03:46:16.947Z,18.57
2018-04-18T03:48:44.391Z,19.93
2018-04-18T03:51:11.846Z,18.50
2018-04-18T03:53:39.321Z,19.50
2018-04-18T03:56:06.810Z,20.50
2018-04-18T03:58:35.077Z,19.03
2018-04-18T04:01:02.470Z,18.50
2018-04-18T04:03:29.950Z,18.60
2018-04-18T04:05:57.402Z,19.13
2018-04-18T04:08:24.833Z,19.37
2018-04-18T04:10:52.310Z,20.93
2018-04-18T04:13:19.777Z,20.60
2018-04-18T04:15:47.223Z,19.00
2018-04-18T04:18:26.443Z,19.70
2018-04-18T04:21:05.714Z,20.83
2018-04-18T04:23:45.074Z,20.70
2018-04-18T04:26:12.548Z,20.50
2018-04-18T04:28:39.988Z,18.90
2018-04-18T04:31:08.210Z,19.60
2018-04-18T04:33:35.666Z,19.47
2018-04-18T04:36:03.110Z,20.67
2018-04-18T04:38:30.589Z,20.10
2018-04-18T04:40:58.028Z,19.73
2018-04-18T04:43:25.491Z,19.30
2018-04-18T04:45:52.929Z,20.23
2018-04-18T04:48:21.163Z,18.67
2018-04-18T04:50:48.596Z,20.67
2018-04-18T04:53:16.058Z,21.10
2018-04-18T04:55:43.543Z,21.87
2018-04-18T04:58:10.998Z,22.00
2018-04-18T05:00:39.083Z,20.80
2018-04-18T05:03:06.549Z,20.70
2018-04-18T05:05:33.994Z,21.13
2018-04-18T05:08:01.455Z,20.93
2018-04-18T05:10:28.915Z,21.17
2018-04-18T05:12:56.367Z,21.20
2018-04-18T05:15:23.813Z,20.40
2018-04-18T05:17:51.309Z,21.10
2018-04-18T05:20:18.750Z,22.70
2018-04-18T05:22:46.230Z,23.17
2018-04-18T05:25:13.674Z,23.00
2018-04-18T05:27:41.135Z,23.20
2018-04-18T05:30:08.638Z,22.83
2018-04-18T05:32:36.077Z,22.33
2018-04-18T05:35:03.518Z,22.80
2018-04-18T05:37:31.022Z,23.60
2018-04-18T05:39:58.458Z,22.93
2018-04-18T05:42:25.912Z,23.40
2018-04-18T05:44:53.349Z,23.10
2018-04-18T05:47:20.814Z,24.37
2018-04-18T05:49:48.251Z,22.87
2018-04-18T05:52:16.473Z,22.50
2018-04-18T05:54:43.902Z,23.40
2018-04-18T05:57:11.355Z,23.63
2018-04-18T05:59:39.564Z,24.83
2018-04-18T06:02:07.006Z,26.20
2018-04-18T06:04:35.234Z,23.77
2018-04-18T06:07:02.763Z,25.30
2018-04-18T06:09:30.210Z,23.67
2018-04-18T06:11:57.713Z,22.60
2018-04-18T06:14:25.154Z,24.20
2018-04-18T06:16:52.603Z,23.83
2018-04-18T06:19:20.113Z,22.40
2018-04-18T06:21:47.541Z,23.97
2018-04-18T06:24:14.995Z,23.10
2018-04-18T06:26:42.493Z,24.73
2018-04-18T06:29:10.061Z,25.13
2018-04-18T06:31:37.520Z,25.00
2018-04-18T06:34:04.999Z,25.97
2018-04-18T06:36:32.459Z,24.73
2018-04-18T06:38:59.914Z,24.40
2018-04-18T06:41:27.387Z,25.27
2018-04-18T06:43:54.919Z,22.93
2018-04-18T06:46:22.362Z,26.03
2018-04-18T06:48:49.819Z,25.37
2018-04-18T06:51:17.358Z,25.30
2018-04-18T06:53:44.790Z,25.00
2018-04-18T06:56:12.219Z,24.80
2018-04-18T06:58:39.695Z,26.70
2018-04-18T07:01:07.211Z,25.77
2018-04-18T07:03:34.667Z,25.03
2018-04-18T07:06:02.170Z,25.03
2018-04-18T07:08:29.635Z,25.00
2018-04-18T07:10:57.198Z,24.50
2018-04-18T07:13:24.697Z,26.20
2018-04-18T07:15:52.129Z,25.40
2018-04-18T07:18:19.699Z,24.87
2018-04-18T07:20:47.155Z,25.50
2018-04-18T07:23:14.805Z,24.67
2018-04-18T07:25:42.347Z,20.90
2018-04-18T07:28:09.847Z,22.03
2018-04-18T07:30:37.403Z,22.43
2018-04-18T07:33:04.869Z,22.70
2018-04-18T07:35:32.315Z,20.33
2018-04-18T07:37:59.791Z,19.43
2018-04-18T07:40:27.238Z,19.17
2018-04-18T07:42:54.707Z,21.77
2018-04-18T07:45:22.258Z,20.73
2018-04-18T07:47:49.695Z,20.57
2018-04-18T07:50:17.203Z,18.40
2018-04-18T07:52:45.533Z,19.23
2018-04-18T07:55:13.743Z,18.77
2018-04-18T07:57:41.197Z,16.00
2018-04-18T08:00:08.641Z,15.00
2018-04-18T08:02:36.950Z,16.27
2018-04-18T08:05:04.394Z,14.63
2018-04-18T08:07:31.952Z,15.07
2018-04-18T08:09:59.446Z,13.57
2018-04-18T08:12:27.006Z,14.17
2018-04-18T08:14:54.473Z,13.60
2018-04-18T08:17:21.909Z,12.37
2018-04-18T08:19:49.395Z,9.80
2018-04-18T08:22:16.924Z,10.97
2018-04-18T08:24:44.388Z,9.50
2018-04-18T08:27:11.848Z,11.53
2018-04-18T08:29:39.339Z,9.90
2018-04-18T08:32:06.815Z,9.43
2018-04-18T08:34:34.421Z,10.13
2018-04-18T08:37:01.849Z,8.00
2018-04-18T08:39:29.387Z,8.67
2018-04-18T08:41:56.829Z,10.20
2018-04-18T08:44:24.310Z,8.80
2018-04-18T08:46:51.747Z,9.37
2018-04-18T08:49:19.202Z,7.63
2018-04-18T08:51:46.639Z,8.10
2018-04-18T08:54:14.854Z,7.73
2018-04-18T08:56:42.289Z,7.20
2018-04-18T08:59:10.506Z,6.70
2018-04-18T09:01:37.943Z,7.97
2018-04-18T09:04:05.420Z,6.90
2018-04-18T09:06:32.853Z,6.37
2018-04-18T09:09:00.318Z,6.70
2018-04-18T09:11:27.827Z,5.80
2018-04-18T09:13:55.324Z,6.20
2018-04-18T09:16:22.749Z,5.10
2018-04-18T09:18:50.226Z,5.47
2018-04-18T09:21:17.693Z,6.70
2018-04-18T09:23:45.239Z,5.90
2018-04-18T09:26:12.695Z,5.07
2018-04-18T09:28:40.155Z,5.50
2018-04-18T09:31:07.617Z,5.93
2018-04-18T09:33:35.077Z,6.93
2018-04-18T09:36:02.534Z,6.87
2018-04-18T09:38:29.991Z,7.30
2018-04-18T09:40:57.544Z,7.03
2018-04-18T09:43:24.979Z,7.57
2018-04-18T09:45:52.495Z,7.43
2018-04-18T09:48:19.950Z,6.60
2018-04-18T09:50:47.414Z,9.10
2018-04-18T09:53:14.910Z,8.40
2018-04-18T09:55:42.350Z,8.40
2018-04-18T09:58:09.811Z,7.40
2018-04-18T10:03:41.730Z,5.87
2018-04-18T10:06:09.602Z,5.20
2018-04-18T10:08:37.050Z,5.40
2018-04-18T10:11:04.511Z,6.17
2018-04-18T10:13:31.945Z,8.90
2018-04-18T10:15:59.394Z,8.10
2018-04-18T10:18:26.835Z,7.80
2018-04-18T10:20:54.307Z,9.93
2018-04-18T10:23:21.749Z,9.10
2018-04-18T10:25:49.218Z,9.07
2018-04-18T10:28:16.662Z,8.20
2018-04-18T10:30:44.145Z,8.60
2018-04-18T10:33:11.590Z,8.63
2018-04-18T10:35:39.066Z,11.00
2018-04-18T10:38:06.589Z,9.80
2018-04-18T10:40:33.999Z,9.97
2018-04-18T10:43:01.455Z,11.07
2018-04-18T10:45:29.218Z,9.80
2018-04-18T10:47:56.654Z,9.93
2018-04-18T10:50:24.138Z,8.37
2018-04-18T10:52:51.607Z,9.30
2018-04-18T10:55:19.066Z,15.83
2018-04-18T10:57:46.531Z,19.70
2018-04-18T11:00:13.983Z,21.40
2018-04-18T11:02:42.625Z,20.23
2018-04-18T11:05:10.841Z,20.50
2018-04-18T11:07:38.277Z,15.07
2018-04-18T11:10:07.591Z,10.13
2018-04-18T11:12:35.025Z,19.20
2018-04-18T11:15:04.550Z,10.50
2018-04-18T11:17:33.554Z,11.33
2018-04-18T11:20:00.980Z,8.83
2018-04-18T11:22:28.426Z,9.73
2018-04-18T11:24:55.879Z,8.10
2018-04-18T11:27:23.325Z,8.93
2018-04-18T11:29:50.917Z,7.63
2018-04-18T11:32:18.358Z,10.50
2018-04-18T11:34:45.833Z,10.67
2018-04-18T11:37:14.044Z,7.40
2018-04-18T11:39:42.319Z,10.50
2018-04-18T11:42:09.754Z,9.10
2018-04-18T11:44:37.199Z,10.03
2018-04-18T11:47:04.653Z,8.67
2018-04-18T11:49:32.097Z,9.67
2018-04-18T11:51:59.553Z,10.60
2018-04-18T11:54:26.986Z,10.43
2018-04-18T11:56:55.223Z,9.30
2018-04-18T11:59:22.691Z,9.20
2018-04-18T12:01:50.251Z,8.93
2018-04-18T12:04:17.703Z,7.87
2018-04-18T12:06:45.244Z,7.70
2018-04-18T12:09:12.745Z,8.20
2018-04-18T12:11:40.218Z,9.30
2018-04-18T12:14:07.770Z,10.57
2018-04-18T12:16:35.217Z,9.87
2018-04-18T12:19:02.669Z,9.60
2018-04-18T12:21:30.123Z,10.37
2018-04-18T12:23:57.568Z,9.97
2018-04-18T12:26:25.077Z,8.93
2018-04-18T12:28:52.704Z,10.80
2018-04-18T12:31:20.164Z,6.63
2018-04-18T12:33:47.639Z,11.43
2018-04-18T12:36:15.825Z,15.17
2018-04-18T12:38:43.305Z,14.00
2018-04-18T12:41:11.611Z,13.70
2018-04-18T12:43:39.045Z,10.33
2018-04-18T12:46:06.502Z,10.00
2018-04-18T12:48:33.957Z,16.10
2018-04-18T12:51:01.524Z,11.20
2018-04-18T12:53:28.974Z,13.07
2018-04-18T12:55:56.521Z,14.00
2018-04-18T12:58:23.963Z,14.40
2018-04-18T13:00:52.175Z,11.67
2018-04-18T13:03:19.657Z,13.47
2018-04-18T13:05:47.115Z,14.20
2018-04-18T13:08:14.558Z,13.00
2018-04-18T13:10:42.875Z,14.47
2018-04-18T13:13:10.295Z,13.90
2018-04-18T13:15:37.751Z,14.70
2018-04-18T13:18:05.207Z,11.23
2018-04-18T13:20:32.666Z,14.43
2018-04-18T13:23:00.113Z,15.73
2018-04-18T13:25:27.611Z,14.67
2018-04-18T13:27:55.773Z,14.10
2018-04-18T13:30:23.240Z,14.60
2018-04-18T13:32:50.706Z,16.57
2018-04-18T13:35:18.167Z,15.40
2018-04-18T13:37:46.064Z,14.77
2018-04-18T13:40:13.484Z,15.67
2018-04-18T13:42:40.957Z,16.00
2018-04-18T13:45:08.395Z,15.07
2018-04-18T13:47:35.854Z,17.40
2018-04-18T13:50:04.072Z,11.13
2018-04-18T13:52:31.536Z,14.30
2018-04-18T13:54:58.988Z,14.90
2018-04-18T13:57:26.466Z,16.57
2018-04-18T13:59:53.915Z,11.50
2018-04-18T14:02:21.375Z,14.30
2018-04-18T14:04:48.811Z,12.73
2018-04-18T14:07:16.266Z,11.80
2018-04-18T14:09:43.719Z,11.67
2018-04-18T14:12:11.943Z,12.23
2018-04-18T14:14:39.397Z,11.63
2018-04-18T14:17:06.854Z,16.10
2018-04-18T14:19:34.305Z,15.00
2018-04-18T14:22:01.759Z,14.77
2018-04-18T14:24:29.208Z,16.90
2018-04-18T14:26:56.698Z,15.57
2018-04-18T14:29:24.144Z,17.07
2018-04-18T14:31:51.596Z,16.50
2018-04-18T14:34:19.824Z,16.57
2018-04-18T14:36:47.275Z,12.80
2018-04-18T14:39:14.739Z,11.00
2018-04-18T14:41:42.172Z,15.10
2018-04-18T14:44:09.663Z,15.93
2018-04-18T14:46:37.335Z,16.20
2018-04-18T14:49:04.786Z,13.07
2018-04-18T14:51:32.255Z,15.10
2018-04-18T14:53:59.712Z,16.60
2018-04-18T14:56:27.151Z,16.63
2018-04-18T14:58:54.617Z,14.77
2018-04-18T15:01:22.061Z,12.13
2018-04-18T15:03:49.508Z,12.23
2018-04-18T15:06:17.718Z,16.70
2018-04-18T15:08:45.175Z,14.87
2018-04-18T15:11:12.731Z,11.00
2018-04-18T15:13:40.212Z,16.57
2018-04-18T15:16:07.667Z,6.97
2018-04-18T15:18:35.805Z,11.17
2018-04-18T15:21:04.092Z,7.27
2018-04-18T15:23:32.300Z,7.43
2018-04-18T15:25:59.730Z,4.80
2018-04-18T15:28:27.938Z,7.73
2018-04-18T15:30:55.493Z,6.70
2018-04-18T15:33:23.067Z,16.90
2018-04-18T15:35:50.514Z,14.53
2018-04-18T15:38:17.980Z,11.40
2018-04-18T15:40:45.494Z,11.53
2018-04-18T15:43:12.953Z,9.50
2018-04-18T15:45:40.418Z,9.80
2018-04-18T15:48:08.147Z,10.77
2018-04-18T15:50:35.594Z,11.00
2018-04-18T15:53:03.077Z,14.20
2018-04-18T15:55:30.526Z,10.83
2018-04-18T15:57:58.026Z,10.80
2018-04-18T16:00:25.464Z,12.83
2018-04-18T16:02:52.942Z,10.67
2018-04-18T16:05:20.383Z,11.67
2018-04-18T16:07:47.835Z,11.63
2018-04-18T16:10:15.295Z,10.57
2018-04-18T16:12:42.823Z,12.30
2018-04-18T16:15:11.031Z,12.53
2018-04-18T16:17:38.671Z,11.17
2018-04-18T16:20:06.897Z,12.07
2018-04-18T16:22:34.331Z,10.63
2018-04-18T16:25:01.782Z,10.53
2018-04-18T16:27:29.222Z,12.27
2018-04-18T16:29:57.476Z,12.60
2018-04-18T16:32:24.959Z,13.20
2018-04-18T16:34:52.393Z,11.30
2018-04-18T16:37:19.829Z,10.93
2018-04-18T16:39:47.286Z,13.00
2018-04-18T16:42:14.759Z,15.70
2018-04-18T16:44:42.218Z,11.50
2018-04-18T16:47:09.670Z,9.70
2018-04-18T16:49:37.129Z,11.43
2018-04-18T16:52:04.579Z,13.93
2018-04-18T16:54:32.051Z,10.80
2018-04-18T16:56:59.519Z,12.32
2018-04-18T16:59:26.998Z,10.17
2018-04-18T17:01:54.455Z,9.90
2018-04-18T17:04:21.909Z,10.90
2018-04-18T17:06:49.371Z,11.20
2018-04-18T17:09:16.911Z,10.90
2018-04-18T17:11:45.202Z,12.30
2018-04-18T17:14:12.631Z,11.50
2018-04-18T17:16:40.862Z,14.97
2018-04-18T17:19:08.327Z,14.23
2018-04-18T17:21:35.866Z,12.40
2018-04-18T17:24:03.458Z,12.33
2018-04-18T17:26:30.893Z,13.60
2018-04-18T17:28:58.544Z,11.97
2018-04-18T17:31:25.958Z,12.57
2018-04-18T17:33:53.447Z,12.13
2018-04-18T17:36:20.868Z,11.10
2018-04-18T17:38:48.356Z,11.83
2018-04-18T17:41:15.817Z,10.50
2018-04-18T17:43:44.217Z,10.87
2018-04-18T17:46:12.559Z,9.70
2018-04-18T17:48:40.007Z,10.90
2018-04-18T17:51:07.448Z,9.90
2018-04-18T17:53:34.939Z,9.93
2018-04-18T17:56:02.416Z,8.63
2018-04-18T17:58:29.851Z,10.47
2018-04-18T18:00:57.360Z,8.37
2018-04-18T18:03:24.998Z,11.40
2018-04-18T18:05:52.453Z,9.17
2018-04-18T18:08:20.636Z,8.67
2018-04-18T18:10:48.118Z,11.77
2018-04-18T18:13:16.377Z,8.53
2018-04-18T18:15:43.845Z,7.13
2018-04-18T18:18:12.121Z,9.27
2018-04-18T18:20:39.650Z,9.70
2018-04-18T18:23:07.223Z,12.30
2018-04-18T18:25:34.698Z,11.83
2018-04-18T18:28:02.183Z,10.60
2018-04-18T18:30:29.754Z,10.77
2018-04-18T18:32:57.266Z,10.90
2018-04-18T18:35:24.705Z,11.03
2018-04-18T18:37:52.159Z,10.77
2018-04-18T18:40:20.399Z,11.27
2018-04-18T18:42:47.939Z,12.20
2018-04-18T18:45:15.407Z,11.80
2018-04-18T18:47:42.851Z,12.30
2018-04-18T18:50:10.318Z,12.43
2018-04-18T18:52:37.763Z,13.93
2018-04-18T18:55:05.255Z,12.97
2018-04-18T18:57:32.702Z,13.90
2018-04-18T19:00:00.225Z,12.37
2018-04-18T19:02:27.629Z,12.43
2018-04-18T19:04:55.114Z,13.20
2018-04-18T19:07:22.563Z,12.03
2018-04-18T19:09:50.126Z,11.50
2018-04-18T19:12:17.572Z,11.37
2018-04-18T19:14:45.014Z,12.10
2018-04-18T19:17:13.247Z,11.43
2018-04-18T19:19:40.683Z,12.00
2018-04-18T19:22:08.142Z,11.63
2018-04-18T19:24:35.587Z,12.37
2018-04-18T19:27:03.067Z,11.90
2018-04-18T19:29:30.559Z,12.27
2018-04-18T19:31:58.012Z,11.80
2018-04-18T19:34:25.475Z,12.37
2018-04-18T19:36:52.927Z,12.97
2018-04-18T19:39:20.368Z,13.70
2018-04-18T19:41:47.825Z,12.13
2018-04-18T19:44:15.309Z,13.20
2018-04-18T19:46:42.779Z,11.90
2018-04-18T19:49:10.238Z,13.50
2018-04-18T19:51:37.678Z,13.63
2018-04-18T19:54:05.174Z,13.60
2018-04-18T19:56:32.731Z,12.87
2018-04-18T19:59:00.184Z,12.70
2018-04-18T20:01:27.647Z,14.63
2018-04-18T20:03:55.077Z,14.60
2018-04-18T20:06:22.536Z,13.93
2018-04-18T20:08:50.043Z,15.07
2018-04-18T20:11:17.979Z,14.97
2018-04-18T20:13:45.457Z,13.90
2018-04-18T20:16:12.914Z,13.40
2018-04-18T20:18:40.371Z,13.87
2018-04-18T20:21:07.826Z,14.30
2018-04-18T20:23:35.301Z,13.40
2018-04-18T20:26:02.771Z,13.43
2018-04-18T20:28:30.225Z,14.13
2018-04-18T20:30:57.674Z,14.80
2018-04-18T20:33:25.120Z,13.77
2018-04-18T20:35:52.623Z,13.50
2018-04-18T20:38:20.065Z,14.17
2018-04-18T20:40:47.539Z,13.73
2018-04-18T20:43:15.674Z,13.80
2018-04-18T20:45:43.999Z,13.77
2018-04-18T20:48:11.447Z,14.93
2018-04-18T20:50:38.919Z,14.40
2018-04-18T20:53:06.383Z,14.20
2018-04-18T20:55:33.938Z,13.70
2018-04-18T20:58:01.311Z,13.63
2018-04-18T21:00:28.769Z,13.37
2018-04-18T21:02:56.223Z,14.07
2018-04-18T21:05:23.675Z,14.03
2018-04-18T21:07:51.146Z,14.80
2018-04-18T21:10:18.590Z,15.50
2018-04-18T21:12:46.145Z,16.00
2018-04-18T21:15:14.151Z,15.27
2018-04-18T21:17:41.707Z,14.90
2018-04-18T21:20:09.181Z,14.97
2018-04-18T21:22:36.739Z,15.20
2018-04-18T21:25:04.199Z,16.53
2018-04-18T21:27:31.655Z,16.00
2018-04-18T21:29:59.092Z,14.70
2018-04-18T21:32:26.555Z,14.50
2018-04-18T21:34:54.743Z,16.50
2018-04-18T21:37:22.212Z,16.30
2018-04-18T21:39:49.655Z,15.20
2018-04-18T21:42:17.115Z,12.43
2018-04-18T21:44:44.613Z,16.70
2018-04-18T21:47:12.062Z,17.37
2018-04-18T21:49:39.511Z,16.33
2018-04-18T21:52:06.979Z,15.70
2018-04-18T21:54:34.454Z,17.47
2018-04-18T21:57:01.899Z,16.10
2018-04-18T21:59:29.370Z,15.50
2018-04-18T22:01:56.835Z,17.37
2018-04-18T22:04:24.299Z,18.10
2018-04-18T22:06:51.746Z,16.43
2018-04-18T22:09:19.182Z,17.60
2018-04-18T22:11:46.638Z,15.67
2018-04-18T22:14:14.964Z,15.77
2018-04-18T22:16:42.457Z,18.80
2018-04-18T22:19:09.841Z,16.90
2018-04-18T22:21:37.281Z,16.13
2018-04-18T22:24:05.492Z,18.03
2018-04-18T22:26:32.945Z,17.00
2018-04-18T22:29:00.390Z,16.90
2018-04-18T22:31:28.650Z,16.70
2018-04-18T22:33:56.163Z,17.90
2018-04-18T22:36:23.651Z,16.40
2018-04-18T22:38:51.206Z,16.60
2018-04-18T22:41:18.668Z,17.60
2018-04-18T22:43:46.149Z,18.30
2018-04-18T22:46:13.629Z,16.60
2018-04-18T22:48:41.863Z,17.13
2018-04-18T22:51:09.343Z,17.20
2018-04-18T22:53:36.803Z,16.67
2018-04-18T22:56:04.255Z,17.80
2018-04-18T22:58:31.713Z,18.87
2018-04-18T23:00:59.153Z,17.43
2018-04-18T23:03:26.648Z,16.53
2018-04-18T23:05:54.097Z,18.27
2018-04-18T23:08:21.660Z,16.50
2018-04-18T23:10:49.089Z,18.20
2018-04-18T23:13:16.548Z,18.17
2018-04-18T23:15:44.002Z,18.33
2018-04-18T23:18:12.236Z,17.80
2018-04-18T23:20:39.694Z,17.50
2018-04-18T23:23:07.155Z,18.00
2018-04-18T23:25:34.597Z,17.73
2018-04-18T23:28:02.054Z,18.97
2018-04-18T23:30:29.499Z,18.60
2018-04-18T23:32:56.947Z,18.27
2018-04-18T23:35:25.154Z,18.87
2018-04-18T23:37:52.666Z,18.57
2018-04-18T23:40:20.204Z,18.23
2018-04-18T23:42:47.649Z,17.90
2018-04-18T23:45:15.098Z,18.50
2018-04-18T23:47:42.554Z,18.10
2018-04-18T23:50:09.999Z,18.13
2018-04-18T23:52:38.238Z,18.23
2018-04-18T23:55:05.677Z,18.33
2018-04-18T23:57:33.145Z,19.20
